AirNav   Pilot Hours Calculator
 
 1021 users online  

PA46 Horizon Hospital System Greenville Heliport
Greenville, Pennsylvania, USA

GOING TO GREENVILLE?


FAA INFORMATION EFFECTIVE 30 JANUARY 2020

Location

FAA Identifier: PA46
Lat/Long: 41-24-42.1960N 080-22-22.0000W
41-24.703267N 080-22.366667W
41.4117211,-80.3727778
(estimated)
Elevation: 1047 ft. / 319 m (estimated)
Variation: 09W (2000)
Time zone: UTC -5 (UTC -4 during Daylight Saving Time)
Zip code: 16125

Heliport Operations

Heliport use: Private use, MEDICAL.
Activation date: 08/1997
Control tower: no
ARTCC: CLEVELAND CENTER
FSS: ALTOONA FLIGHT SERVICE STATION
NOTAMs facility: FDC (NOTAM-D service not available)
Attendance: CONTINUOUS
Wind indicator: yes
Segmented circle: no
Lights: FOR PERIMETER LGTS CALL 412-588-2100.

Heliport Communications

YOUNGSTOWN APPROACH: 133.95
YOUNGSTOWN DEPARTURE: 133.95
COVVA DP: 133.95
WX ASOS at GKJ (15 nm NE): 121.425 (814-337-2590)
WX ASOS at YNG (17 nm SW): PHONE 330-856-9357
  • APCH/DEP SVC PRVDD BY CLEVELAND ARTCC (ZOB) ON 126.725/291.65 (DUBOIS RCAG) WHEN YOUNGSTOWN APCH CLSD.

Nearby radio navigation aids

VOR radial/distance  VOR name  Freq  Var
YNGr075/14.4YOUNGSTOWN VORTAC109.0005W
FKLr272/(23.3)FRANKLIN VOR109.6006W
JFNr146/26.8JEFFERSON VOR/DME115.2005W
EWCr356/36.0ELLWOOD CITY VOR/DME115.8008W
CXRr105/36.1CHARDON VOR/DME112.7005W
ERIr192/36.5ERIE VORTAC109.4006W

 
NDB name  Hdg/Dist  Freq  Var  ID
CASTLE014/23.427209WUCP ..- -.-. .--.

Heliport Services

Runway Information

Helipad H1

Dimensions: 80 x 80 ft. / 24 x 24 m
Surface: asphalt/concrete, in good condition
Runway edge lights: PERI
Operational restrictions: TWO APPROACH/DEPARTURE PATHS APPLY TO THIS FACILITY: 1. EGRESS NNE 010 DEG INGRESS SSW 190 DEG. 2. EGRESS WNW 280 DEG INGRESS ESE 100 DEG.
Latitude: 41-24.703267N
Longitude: 080-22.366667W
Elevation: 1047.0 ft.
Traffic pattern: leftleft
Markings: basic, in good condition

Heliport Ownership and Management from official FAA records

Ownership: Privately-owned
Owner: HORIZON HOSPITAL SYSTEM
110 N. MAIN ST
GREENVILLE, PA 16125
Phone 412-588-2100
Manager: DONALD G. GAULT
110 N. MAIN ST
GREENVILLE, PA 16125
Phone (724) 589-6698
724-589-6824

Additional Remarks

FOR CD CTC YOUNGSTOWN APCH AT 330-856-4806, WHEN APCH CLSD CTC CLEVELAND ARTCC AT 440-774-0490.

Instrument Procedures

There are no published instrument procedures at PA46.

Some nearby airports with instrument procedures:

4G1 - Greenville Municipal Airport (2 nm N)
KGKJ - Port Meadville Airport (15 nm NE)
KYNG - Youngstown-Warren Regional Airport (17 nm SW)
29D - Grove City Airport (18 nm SE)
KFKL - Venango Regional Airport (23 nm E)
 
Loc | Ops | Rwys | IFR | FBO | Links
Com | Nav | Svcs | Stats | Notes
Area around PA46 (Horizon Hospital System Greenville Heliport)
 
Road maps at: MapQuest Bing Google
 
Aerial photo
No photo
 
Sectional chart

 
Airport distance calculator
Flying to Horizon Hospital System Greenville Heliport? Find the distance to fly.

From to PA46

Sunrise and sunset
Times for 26-Feb-2020
 Local
(UTC-5)
 Zulu
(UTC)
Morning civil twilight06:3411:34
Sunrise07:0212:02
Sunset18:0723:07
Evening civil twilight18:3523:35

Current date and time
Zulu (UTC)  26-Feb-2020 13:15:40
Local (UTC-5)  26-Feb-2020 08:15:40
 
METAR
KGKJ 
15nm NE 
261253Z AUTO 00000KT 10SM OVC002 02/02 A2981 RMK AO2 SLP104 T00220022
KYNG 
16nm SW 
261251Z 00000KT 1/8SM FG VV002 03/02 A2982 RMK AO2 SLP105 T00330022
KFKL 
23nm E 
261256Z AUTO 12003KT M1/4SM -RA FG OVC003 03/03 A2982 RMK AO2 SLP110 P0000 T00280028
KUCP 
23nm S 
261256Z AUTO 00000KT 1/4SM FG OVC003 04/03 A2984 RMK AO2 SLP127 T00390033 RVRNO PNO $
KHZY 
27nm NW 
261253Z AUTO 05003KT 3/4SM BR OVC002 01/01 A2984 RMK AO2 SLP112 T00110006
TAF
KYNG 
16nm SW 
261128Z 2612/2712 05005KT 1 1/2SM BR OVC003 TEMPO 2612/2614 1/4SM -DZ FG VV002 FM261800 21006KT 2SM -RA BR OVC008 FM270100 26008KT 1 1/2SM -RASN BR OVC003 FM270800 28015G25KT 1 1/2SM -SN BR OVC008 FM271000 28015G25KT P6SM VCSH OVC008
NOTAMs
Click for the latest NOTAMs
NOTAMs are issued by the DoD/FAA and will open in a separate window not controlled by AirNav.

 

 
 

Would you like to see your business listed on this page?

 If your business provides an interesting product or service to pilots, flight crews, aircraft, or users of the Horizon Hospital System Greenville Heliport, you should consider listing it here.  To start the listing process, click on the button below
 
Add a business
 

Other Pages about Horizon Hospital System Greenville Heliport

Update a link
 
Copyright © AirNav, LLC. All rights reserved. Privacy Policy  Contact